Time;durP1;ratioP1;P1;durP2;ratioP2;P2;SDS_P1;SDS_P2;PMS_P1;PMS_P2;Temp;Humidity;BMP_temperature;BMP_pressure;BME280_temperature;BME280_humidity;BME280_pressure;Samples;Min_cycle;Max_cycle;Signal;HPM_P1;HPM_P2
2021/03/10 00:00:27;;;;;;;232.95;43.95;;;;;;;;;;5009936;28;20051;-63
2021/03/10 00:02:53;;;;;;;223.57;42.58;;;;;;;;;;5007025;28;20504;-63
2021/03/10 00:05:19;;;;;;;215.93;42.38;;;;;;;;;;5006954;28;20045;-63
2021/03/10 00:07:45;;;;;;;255.13;45.90;;;;;;;;;;5008908;28;20038;-63
2021/03/10 00:10:12;;;;;;;255.85;45.10;;;;;;;;;;5004012;28;20242;-64
2021/03/10 00:12:38;;;;;;;271.98;45.25;;;;;;;;;;5017342;28;20422;-63
2021/03/10 00:15:05;;;;;;;270.30;43.38;;;;;;;;;;5012742;28;20046;-63
2021/03/10 00:17:31;;;;;;;282.38;45.72;;;;;;;;;;5011001;28;20038;-63
2021/03/10 00:20:00;;;;;;;327.42;47.58;;;;;;;;;;5013302;28;20041;-63
2021/03/10 00:22:26;;;;;;;308.27;47.33;;;;;;;;;;5009572;28;20052;-63
2021/03/10 00:24:52;;;;;;;267.50;45.72;;;;;;;;;;5008503;28;20033;-63
2021/03/10 00:27:25;;;;;;;285.17;46.55;;;;;;;;;;5008272;28;20918;-63
2021/03/10 00:29:51;;;;;;;319.17;46.80;;;;;;;;;;5002805;28;20037;-63
2021/03/10 00:32:17;;;;;;;236.35;43.80;;;;;;;;;;5005179;28;20075;-64
2021/03/10 00:34:43;;;;;;;312.88;45.80;;;;;;;;;;5014625;28;20497;-64
2021/03/10 00:37:09;;;;;;;250.93;44.45;;;;;;;;;;5006545;28;20054;-63
2021/03/10 00:39:35;;;;;;;253.52;43.97;;;;;;;;;;5011087;28;20045;-63
2021/03/10 00:42:01;;;;;;;287.25;47.70;;;;;;;;;;5008800;28;20496;-63
2021/03/10 00:44:27;;;;;;;259.90;47.03;;;;;;;;;;5011259;28;20503;-63
2021/03/10 00:46:55;;;;;;;251.25;46.97;;;;;;;;;;5016267;28;20048;-63
2021/03/10 00:49:21;;;;;;;219.55;44.63;;;;;;;;;;5007618;28;20046;-63
2021/03/10 00:51:47;;;;;;;242.68;45.05;;;;;;;;;;5012287;28;20049;-63
2021/03/10 00:54:13;;;;;;;240.23;45.25;;;;;;;;;;5016002;28;20029;-64
2021/03/10 00:56:39;;;;;;;223.68;45.15;;;;;;;;;;5017920;28;20496;-64
2021/03/10 00:59:05;;;;;;;232.48;46.00;;;;;;;;;;5014381;28;20038;-63
2021/03/10 01:01:31;;;;;;;224.60;44.83;;;;;;;;;;5008712;28;20029;-63
2021/03/10 01:03:57;;;;;;;257.70;46.03;;;;;;;;;;5011721;28;20562;-63
2021/03/10 01:06:25;;;;;;;243.80;45.55;;;;;;;;;;5013215;28;20032;-64
2021/03/10 01:08:51;;;;;;;255.50;47.28;;;;;;;;;;5005026;28;20101;-63
2021/03/10 01:11:17;;;;;;;264.25;48.75;;;;;;;;;;5015716;28;20037;-64
2021/03/10 01:13:44;;;;;;;246.48;46.05;;;;;;;;;;5013191;28;20441;-63
2021/03/10 01:16:10;;;;;;;258.75;47.30;;;;;;;;;;5012465;28;20037;-63
2021/03/10 01:18:36;;;;;;;308.92;47.53;;;;;;;;;;5011941;28;20098;-63
2021/03/10 01:21:02;;;;;;;264.05;48.42;;;;;;;;;;5015742;28;20033;-63
2021/03/10 01:23:28;;;;;;;235.57;46.90;;;;;;;;;;5013641;28;20045;-63
2021/03/10 01:25:54;;;;;;;254.55;45.13;;;;;;;;;;5008268;28;20071;-64
2021/03/10 01:28:19;;;;;;;314.25;48.58;;;;;;;;;;5010017;28;20033;-64
2021/03/10 01:30:45;;;;;;;292.40;48.03;;;;;;;;;;5009788;28;20053;-64
2021/03/10 01:33:11;;;;;;;291.85;49.88;;;;;;;;;;5006770;28;20072;-64
2021/03/10 01:35:38;;;;;;;326.08;50.15;;;;;;;;;;5006076;28;20042;-64
2021/03/10 01:38:06;;;;;;;257.70;49.22;;;;;;;;;;5007023;28;20095;-64
2021/03/10 01:40:35;;;;;;;289.40;48.42;;;;;;;;;;5010230;28;20102;-63
2021/03/10 01:43:04;;;;;;;254.43;47.95;;;;;;;;;;5008297;28;20037;-63
2021/03/10 01:45:31;;;;;;;238.63;46.97;;;;;;;;;;5010185;28;20472;-64
2021/03/10 01:48:00;;;;;;;238.30;46.70;;;;;;;;;;5011318;28;20033;-63
2021/03/10 01:50:27;;;;;;;237.05;46.97;;;;;;;;;;5007946;28;20544;-64
2021/03/10 01:52:57;;;;;;;230.13;46.95;;;;;;;;;;5004738;28;20045;-64
2021/03/10 01:55:23;;;;;;;219.35;47.38;;;;;;;;;;5006775;28;20088;-64
2021/03/10 01:57:49;;;;;;;215.52;46.90;;;;;;;;;;5007929;28;20107;-64
2021/03/10 02:00:18;;;;;;;245.32;47.15;;;;;;;;;;5003208;28;20448;-64
2021/03/10 02:02:44;;;;;;;239.90;45.20;;;;;;;;;;5001575;28;20146;-64
2021/03/10 02:05:12;;;;;;;231.73;47.40;;;;;;;;;;5009392;28;20061;-64
2021/03/10 02:07:45;;;;;;;222.75;47.78;;;;;;;;;;5010376;28;20051;-64
2021/03/10 02:10:24;;;;;;;223.05;46.78;;;;;;;;;;5010660;28;20042;-64
2021/03/10 02:13:08;;;;;;;230.65;47.50;;;;;;;;;;5006789;28;20030;-64
2021/03/10 02:15:43;;;;;;;209.25;44.50;;;;;;;;;;5004679;28;20090;-64
2021/03/10 02:18:15;;;;;;;216.63;48.63;;;;;;;;;;5007322;28;20049;-64
2021/03/10 02:20:44;;;;;;;230.57;46.63;;;;;;;;;;5010450;28;20555;-64
2021/03/10 02:23:16;;;;;;;237.10;47.90;;;;;;;;;;5003301;28;20049;-64
2021/03/10 02:26:04;;;;;;;233.88;48.20;;;;;;;;;;5004647;28;20079;-64
2021/03/10 02:28:31;;;;;;;228.88;46.25;;;;;;;;;;5004170;28;20080;-64
2021/03/10 02:30:58;;;;;;;224.05;47.53;;;;;;;;;;5005697;28;20073;-64
2021/03/10 02:33:25;;;;;;;258.05;47.25;;;;;;;;;;5006736;28;20445;-64
2021/03/10 02:35:54;;;;;;;231.05;49.05;;;;;;;;;;5011197;28;20670;-63
2021/03/10 02:38:22;;;;;;;214.77;44.67;;;;;;;;;;5009070;28;20478;-64
2021/03/10 02:40:48;;;;;;;232.73;51.38;;;;;;;;;;5004038;28;20049;-64
2021/03/10 02:43:15;;;;;;;224.00;47.20;;;;;;;;;;5005543;28;20106;-65
2021/03/10 02:45:41;;;;;;;224.65;47.55;;;;;;;;;;5010527;28;20107;-64
2021/03/10 02:48:08;;;;;;;231.15;47.70;;;;;;;;;;5015678;28;20080;-64
2021/03/10 02:50:34;;;;;;;245.07;48.15;;;;;;;;;;5010969;28;20042;-63
2021/03/10 02:53:03;;;;;;;217.75;45.85;;;;;;;;;;5015179;28;20574;-64
2021/03/10 02:55:28;;;;;;;217.88;48.28;;;;;;;;;;5013627;28;20400;-64
2021/03/10 02:57:55;;;;;;;206.18;46.53;;;;;;;;;;5004717;28;20041;-63
2021/03/10 03:00:22;;;;;;;216.98;46.72;;;;;;;;;;5009401;28;20722;-63
2021/03/10 03:02:48;;;;;;;219.40;44.75;;;;;;;;;;5006456;28;20405;-64
2021/03/10 03:05:14;;;;;;;225.77;45.45;;;;;;;;;;5008185;28;20034;-64
2021/03/10 03:07:40;;;;;;;213.82;46.80;;;;;;;;;;4998535;28;20045;-64
2021/03/10 03:10:08;;;;;;;212.82;44.42;;;;;;;;;;5004472;28;20034;-64
2021/03/10 03:12:34;;;;;;;222.18;46.67;;;;;;;;;;5015073;28;20049;-63
2021/03/10 03:15:01;;;;;;;224.88;48.05;;;;;;;;;;5017294;28;20288;-63
2021/03/10 03:17:30;;;;;;;196.13;43.80;;;;;;;;;;5003837;28;20052;-63
2021/03/10 03:19:56;;;;;;;212.38;43.70;;;;;;;;;;5008514;28;20083;-62
2021/03/10 03:22:23;;;;;;;228.07;46.20;;;;;;;;;;5013962;28;20132;-64
2021/03/10 03:24:50;;;;;;;212.73;45.22;;;;;;;;;;5015513;28;20184;-64
2021/03/10 03:27:25;;;;;;;211.75;45.42;;;;;;;;;;5009078;28;20045;-64
2021/03/10 03:29:52;;;;;;;206.00;43.40;;;;;;;;;;5013337;28;20040;-63
2021/03/10 03:32:18;;;;;;;206.40;42.85;;;;;;;;;;5012896;28;20117;-63
2021/03/10 03:34:44;;;;;;;206.25;45.42;;;;;;;;;;5007466;28;20042;-62
2021/03/10 03:37:10;;;;;;;225.60;45.15;;;;;;;;;;5017041;28;20080;-63
2021/03/10 03:39:39;;;;;;;222.05;44.55;;;;;;;;;;5009843;28;20111;-63
2021/03/10 03:42:05;;;;;;;231.07;45.22;;;;;;;;;;5018174;28;20563;-62
2021/03/10 03:44:31;;;;;;;213.95;40.35;;;;;;;;;;5011566;28;20088;-63
2021/03/10 03:46:57;;;;;;;227.05;45.85;;;;;;;;;;5012438;28;20041;-63
2021/03/10 03:49:23;;;;;;;225.48;44.38;;;;;;;;;;5009497;28;20041;-63
2021/03/10 03:51:52;;;;;;;235.07;45.17;;;;;;;;;;5006150;28;20057;-63
2021/03/10 03:54:17;;;;;;;216.60;43.60;;;;;;;;;;5007614;28;20496;-63
2021/03/10 03:56:43;;;;;;;222.70;44.88;;;;;;;;;;5010239;28;20037;-63
2021/03/10 03:59:09;;;;;;;225.63;45.08;;;;;;;;;;5008466;28;20045;-63
2021/03/10 04:01:35;;;;;;;215.38;43.05;;;;;;;;;;5001753;28;20470;-63
2021/03/10 04:04:01;;;;;;;233.30;44.42;;;;;;;;;;5012594;28;20042;-63
2021/03/10 04:06:30;;;;;;;210.65;42.63;;;;;;;;;;5013357;28;20541;-63
2021/03/10 04:08:56;;;;;;;202.45;39.50;;;;;;;;;;5013594;28;20060;-63
2021/03/10 04:11:22;;;;;;;216.27;39.30;;;;;;;;;;5002659;28;21631;-63
2021/03/10 04:13:48;;;;;;;237.75;45.42;;;;;;;;;;5003090;28;20133;-63
2021/03/10 04:16:16;;;;;;;220.32;45.30;;;;;;;;;;5007182;28;20444;-64
2021/03/10 04:18:42;;;;;;;221.68;44.88;;;;;;;;;;5006541;28;20045;-64
2021/03/10 04:21:08;;;;;;;224.23;46.30;;;;;;;;;;5010643;28;20125;-63
2021/03/10 04:23:36;;;;;;;236.90;48.42;;;;;;;;;;5006601;28;20044;-63
2021/03/10 04:26:02;;;;;;;229.90;47.28;;;;;;;;;;5008453;28;20036;-63
2021/03/10 04:28:28;;;;;;;234.25;46.05;;;;;;;;;;5014126;28;20052;-64
2021/03/10 04:30:54;;;;;;;229.63;46.92;;;;;;;;;;5011081;28;20468;-63
2021/03/10 04:33:20;;;;;;;238.65;46.88;;;;;;;;;;5012062;28;20068;-63
2021/03/10 04:35:46;;;;;;;232.30;46.67;;;;;;;;;;5007807;28;20069;-63
2021/03/10 04:38:12;;;;;;;237.50;48.13;;;;;;;;;;5002438;28;21157;-63
2021/03/10 04:40:38;;;;;;;215.07;46.38;;;;;;;;;;5005751;28;20052;-63
2021/03/10 04:43:04;;;;;;;237.45;46.17;;;;;;;;;;5006629;28;20038;-63
2021/03/10 04:45:30;;;;;;;223.52;45.97;;;;;;;;;;5010754;28;21150;-63
2021/03/10 04:47:56;;;;;;;230.05;46.40;;;;;;;;;;5011125;28;20412;-63
2021/03/10 04:50:22;;;;;;;208.60;45.33;;;;;;;;;;5011689;28;20176;-63
2021/03/10 04:52:48;;;;;;;220.05;45.22;;;;;;;;;;5010888;28;20080;-63
2021/03/10 04:55:14;;;;;;;233.00;47.35;;;;;;;;;;5002592;28;20033;-63
2021/03/10 04:57:42;;;;;;;219.98;46.65;;;;;;;;;;5005340;28;20284;-63
2021/03/10 05:00:09;;;;;;;234.00;45.28;;;;;;;;;;5009447;28;20050;-64
2021/03/10 05:02:36;;;;;;;223.32;45.42;;;;;;;;;;5006206;28;20400;-64
2021/03/10 05:05:03;;;;;;;207.57;45.85;;;;;;;;;;5006330;28;20034;-64
2021/03/10 05:07:28;;;;;;;215.20;45.90;;;;;;;;;;5012570;28;20048;-64
2021/03/10 05:09:54;;;;;;;219.70;46.28;;;;;;;;;;5005528;28;20046;-64
2021/03/10 05:12:20;;;;;;;210.02;43.38;;;;;;;;;;5012049;28;20041;-63
2021/03/10 05:14:46;;;;;;;209.40;44.55;;;;;;;;;;5006961;28;20144;-63
2021/03/10 05:17:12;;;;;;;224.57;46.97;;;;;;;;;;5003624;28;20403;-63
2021/03/10 05:19:38;;;;;;;213.75;44.75;;;;;;;;;;5006879;28;20053;-62
2021/03/10 05:22:04;;;;;;;225.93;46.20;;;;;;;;;;5011214;28;20610;-63
2021/03/10 05:24:30;;;;;;;231.25;47.13;;;;;;;;;;5012826;28;20061;-63
2021/03/10 05:26:56;;;;;;;247.88;46.08;;;;;;;;;;5009623;28;20077;-63
2021/03/10 05:29:22;;;;;;;228.52;45.85;;;;;;;;;;5013361;28;20105;-64
2021/03/10 05:31:48;;;;;;;234.45;44.78;;;;;;;;;;4999435;28;20049;-63
2021/03/10 05:34:14;;;;;;;236.65;45.13;;;;;;;;;;5008852;28;20489;-64
2021/03/10 05:36:40;;;;;;;246.90;45.95;;;;;;;;;;5011011;28;20040;-63
2021/03/10 05:39:09;;;;;;;243.85;46.80;;;;;;;;;;5008259;28;20030;-64
2021/03/10 05:41:35;;;;;;;264.75;47.35;;;;;;;;;;5009514;28;20157;-64
2021/03/10 05:44:01;;;;;;;268.02;46.25;;;;;;;;;;5009375;28;20030;-61
2021/03/10 05:46:27;;;;;;;270.27;47.97;;;;;;;;;;5008251;28;22033;-62
2021/03/10 05:48:55;;;;;;;253.00;47.05;;;;;;;;;;5006082;28;20034;-64
2021/03/10 05:51:21;;;;;;;253.63;44.70;;;;;;;;;;4994298;28;20083;-64
2021/03/10 05:53:48;;;;;;;266.20;46.80;;;;;;;;;;5002242;28;20433;-64
2021/03/10 05:56:14;;;;;;;242.95;45.67;;;;;;;;;;5005747;28;20041;-63
2021/03/10 05:58:40;;;;;;;259.73;44.70;;;;;;;;;;5008826;28;20103;-64
2021/03/10 06:01:06;;;;;;;244.02;44.28;;;;;;;;;;5005412;28;20038;-64
2021/03/10 06:03:32;;;;;;;256.48;47.83;;;;;;;;;;5001445;28;20492;-66
2021/03/10 06:05:59;;;;;;;262.25;46.67;;;;;;;;;;5001025;28;20037;-64
2021/03/10 06:08:34;;;;;;;257.88;46.35;;;;;;;;;;5006526;28;20064;-64
2021/03/10 06:11:01;;;;;;;262.92;47.05;;;;;;;;;;5014046;28;20041;-65
2021/03/10 06:13:28;;;;;;;260.70;48.53;;;;;;;;;;5010795;28;20059;-65
2021/03/10 06:15:57;;;;;;;272.95;48.42;;;;;;;;;;5008771;28;20139;-64
2021/03/10 06:18:28;;;;;;;259.63;48.95;;;;;;;;;;5012510;28;20033;-64
2021/03/10 06:21:06;;;;;;;241.15;47.35;;;;;;;;;;5012997;28;20038;-64
2021/03/10 06:23:33;;;;;;;248.57;48.45;;;;;;;;;;5015841;28;20034;-64
2021/03/10 06:26:01;;;;;;;267.25;48.70;;;;;;;;;;5013510;28;20034;-64
2021/03/10 06:28:40;;;;;;;246.73;46.97;;;;;;;;;;5007282;28;20049;-64
2021/03/10 06:31:16;;;;;;;263.73;48.40;;;;;;;;;;5010310;28;20512;-65
2021/03/10 06:33:42;;;;;;;261.77;47.75;;;;;;;;;;5011879;28;20038;-64
2021/03/10 06:36:08;;;;;;;283.50;50.17;;;;;;;;;;5007490;28;20087;-65
2021/03/10 06:38:34;;;;;;;282.92;50.58;;;;;;;;;;5005693;28;20487;-67
2021/03/10 06:41:00;;;;;;;255.75;49.75;;;;;;;;;;5006123;28;20045;-65
2021/03/10 06:43:42;;;;;;;253.60;48.00;;;;;;;;;;5013427;28;20416;-65
2021/03/10 06:46:11;;;;;;;260.38;48.67;;;;;;;;;;5011596;28;20184;-64
2021/03/10 06:48:37;;;;;;;262.30;49.83;;;;;;;;;;5005918;28;20487;-64
2021/03/10 06:51:13;;;;;;;237.68;45.13;;;;;;;;;;4999191;28;20033;-64
2021/03/10 06:53:40;;;;;;;236.05;46.50;;;;;;;;;;5002905;28;20566;-64
2021/03/10 06:56:16;;;;;;;245.63;49.08;;;;;;;;;;5000710;28;20053;-64
2021/03/10 06:58:42;;;;;;;246.57;48.95;;;;;;;;;;5003895;28;20041;-64
2021/03/10 07:01:08;;;;;;;222.60;47.83;;;;;;;;;;5002740;28;20056;-65
2021/03/10 07:03:37;;;;;;;261.23;49.72;;;;;;;;;;5000477;28;20546;-65
2021/03/10 07:06:03;;;;;;;262.45;51.95;;;;;;;;;;5004539;28;20876;-65
2021/03/10 07:08:29;;;;;;;238.15;49.78;;;;;;;;;;5002522;28;20042;-65
2021/03/10 07:10:56;;;;;;;240.52;49.25;;;;;;;;;;5006692;28;20195;-65
2021/03/10 07:13:22;;;;;;;244.82;49.40;;;;;;;;;;5002814;28;20041;-65
2021/03/10 07:15:51;;;;;;;225.95;47.90;;;;;;;;;;5011106;28;20526;-65
2021/03/10 07:18:18;;;;;;;231.00;49.15;;;;;;;;;;5006934;28;20427;-65
2021/03/10 07:20:44;;;;;;;236.10;47.70;;;;;;;;;;5003048;28;20045;-65
2021/03/10 07:23:16;;;;;;;216.20;50.00;;;;;;;;;;4999121;28;20527;-65
2021/03/10 07:25:45;;;;;;;218.43;47.08;;;;;;;;;;5001279;28;20566;-65
2021/03/10 07:28:16;;;;;;;199.82;47.97;;;;;;;;;;5004076;28;20189;-65
2021/03/10 07:30:46;;;;;;;201.18;46.22;;;;;;;;;;5006618;28;20648;-65
2021/03/10 07:33:13;;;;;;;225.82;48.42;;;;;;;;;;5006453;28;20042;-65
2021/03/10 07:35:49;;;;;;;201.80;47.33;;;;;;;;;;5010687;28;20038;-65
2021/03/10 07:38:15;;;;;;;204.82;47.17;;;;;;;;;;5006257;28;20133;-65
2021/03/10 07:41:00;;;;;;;197.52;49.45;;;;;;;;;;5003237;28;20049;-64
2021/03/10 07:43:45;;;;;;;188.73;45.45;;;;;;;;;;5002908;28;20172;-66
2021/03/10 07:46:23;;;;;;;197.85;46.95;;;;;;;;;;4998004;28;20042;-66
2021/03/10 07:48:49;;;;;;;203.07;48.58;;;;;;;;;;4996494;28;20045;-64
2021/03/10 07:51:27;;;;;;;197.35;47.33;;;;;;;;;;4999275;28;20305;-65
2021/03/10 07:53:54;;;;;;;169.40;45.33;;;;;;;;;;4996494;28;20073;-65
2021/03/10 07:56:23;;;;;;;165.63;45.83;;;;;;;;;;5000847;28;20179;-66
2021/03/10 07:58:49;;;;;;;164.88;44.92;;;;;;;;;;5003171;28;20037;-65
2021/03/10 08:01:18;;;;;;;152.48;46.10;;;;;;;;;;5000005;28;20093;-66
2021/03/10 08:03:44;;;;;;;162.00;44.58;;;;;;;;;;5000567;28;20041;-65
2021/03/10 08:06:10;;;;;;;148.55;44.15;;;;;;;;;;5006238;28;20456;-65
2021/03/10 08:08:36;;;;;;;149.65;44.00;;;;;;;;;;5012259;28;20041;-65
2021/03/10 08:11:14;;;;;;;128.40;45.88;;;;;;;;;;5011695;28;20037;-65
2021/03/10 08:13:40;;;;;;;142.73;42.80;;;;;;;;;;5001523;28;20037;-65
2021/03/10 08:16:08;;;;;;;126.70;40.83;;;;;;;;;;5007288;28;20045;-65
2021/03/10 08:18:34;;;;;;;118.55;41.65;;;;;;;;;;5002823;28;20658;-65
2021/03/10 08:21:16;;;;;;;110.43;39.92;;;;;;;;;;5001778;28;20053;-65
2021/03/10 08:23:42;;;;;;;109.85;39.92;;;;;;;;;;5000736;28;20116;-65
2021/03/10 08:26:08;;;;;;;100.20;37.97;;;;;;;;;;5008326;28;20038;-66
2021/03/10 08:28:38;;;;;;;103.25;38.55;;;;;;;;;;5004030;28;20601;-66
2021/03/10 08:31:07;;;;;;;96.03;35.67;;;;;;;;;;5010783;28;20050;-65
2021/03/10 08:33:44;;;;;;;84.30;34.60;;;;;;;;;;5010042;28;20037;-65
2021/03/10 08:36:11;;;;;;;80.32;34.13;;;;;;;;;;5001210;28;20505;-65
2021/03/10 08:38:37;;;;;;;80.88;34.20;;;;;;;;;;5005009;28;20401;-65
2021/03/10 08:41:04;;;;;;;75.30;33.67;;;;;;;;;;5003431;28;20231;-65
2021/03/10 08:43:30;;;;;;;70.05;31.13;;;;;;;;;;5002730;28;20044;-65
2021/03/10 08:45:56;;;;;;;66.93;32.65;;;;;;;;;;5004703;28;20037;-65
2021/03/10 08:48:23;;;;;;;78.38;32.38;;;;;;;;;;5004508;28;20053;-66
2021/03/10 08:50:49;;;;;;;67.40;32.17;;;;;;;;;;5000063;28;20042;-65
2021/03/10 08:53:16;;;;;;;70.32;32.88;;;;;;;;;;5008672;28;20072;-65
2021/03/10 08:55:42;;;;;;;71.53;33.35;;;;;;;;;;5000697;28;20038;-65
2021/03/10 08:58:12;;;;;;;70.78;31.50;;;;;;;;;;5011913;28;20064;-65
2021/03/10 09:00:39;;;;;;;64.45;28.95;;;;;;;;;;5007119;28;20059;-65
2021/03/10 09:03:13;;;;;;;67.85;30.42;;;;;;;;;;5004598;28;20045;-65
2021/03/10 09:05:40;;;;;;;69.50;30.15;;;;;;;;;;5002885;28;20068;-66
2021/03/10 09:08:07;;;;;;;70.43;30.95;;;;;;;;;;5001782;28;20053;-66
2021/03/10 09:10:33;;;;;;;74.53;32.03;;;;;;;;;;5003036;28;20038;-66
2021/03/10 09:13:00;;;;;;;70.18;30.58;;;;;;;;;;5004392;28;20041;-66
2021/03/10 09:15:26;;;;;;;76.20;32.67;;;;;;;;;;5006350;28;20045;-65
2021/03/10 09:17:52;;;;;;;69.80;30.90;;;;;;;;;;5012296;28;20125;-65
2021/03/10 09:20:23;;;;;;;71.47;31.25;;;;;;;;;;5001409;28;20140;-66
2021/03/10 09:22:49;;;;;;;69.82;32.13;;;;;;;;;;5009649;28;20064;-66
2021/03/10 09:25:17;;;;;;;71.38;30.45;;;;;;;;;;5005128;28;20502;-65
2021/03/10 09:27:43;;;;;;;72.88;31.80;;;;;;;;;;5011196;28;20901;-65
2021/03/10 09:30:16;;;;;;;70.55;31.63;;;;;;;;;;5007791;28;20176;-65
2021/03/10 09:32:43;;;;;;;66.93;30.17;;;;;;;;;;5004141;28;20781;-65
2021/03/10 09:35:14;;;;;;;70.35;30.02;;;;;;;;;;5011724;28;20463;-65
2021/03/10 09:37:44;;;;;;;69.93;31.65;;;;;;;;;;5007922;28;20497;-65
2021/03/10 09:40:11;;;;;;;73.82;30.83;;;;;;;;;;5003394;28;20045;-65
2021/03/10 09:42:37;;;;;;;66.53;30.33;;;;;;;;;;5002296;28;20045;-65
2021/03/10 09:45:03;;;;;;;64.70;30.52;;;;;;;;;;5003770;28;20030;-65
2021/03/10 09:47:29;;;;;;;68.70;30.75;;;;;;;;;;5002843;28;20046;-65
2021/03/10 09:49:56;;;;;;;71.25;30.63;;;;;;;;;;5002479;28;20079;-65
2021/03/10 09:52:31;;;;;;;64.20;30.60;;;;;;;;;;5001400;28;20437;-65
2021/03/10 09:54:57;;;;;;;65.32;30.90;;;;;;;;;;5004666;28;20050;-65
2021/03/10 09:57:24;;;;;;;55.38;28.35;;;;;;;;;;5009464;28;20052;-65
2021/03/10 09:59:53;;;;;;;61.83;29.13;;;;;;;;;;5011022;28;20033;-65
2021/03/10 10:02:21;;;;;;;59.97;30.15;;;;;;;;;;5005161;28;23791;-66
2021/03/10 10:05:00;;;;;;;57.33;28.88;;;;;;;;;;5007071;28;20036;-65
2021/03/10 10:07:26;;;;;;;57.67;29.13;;;;;;;;;;5000853;28;22602;-64
2021/03/10 10:09:53;;;;;;;53.63;27.55;;;;;;;;;;5000121;28;20068;-65
2021/03/10 10:12:19;;;;;;;54.10;28.48;;;;;;;;;;5004953;28;20302;-65
2021/03/10 10:14:44;;;;;;;53.47;26.90;;;;;;;;;;5008976;28;20053;-65
2021/03/10 10:17:11;;;;;;;51.50;26.92;;;;;;;;;;5004701;28;20451;-65
2021/03/10 10:19:37;;;;;;;50.80;27.02;;;;;;;;;;5006941;28;20037;-65
2021/03/10 10:22:03;;;;;;;51.15;26.77;;;;;;;;;;5002736;28;20543;-65
2021/03/10 10:24:29;;;;;;;49.85;25.58;;;;;;;;;;5005244;28;20103;-65
2021/03/10 10:26:55;;;;;;;45.53;24.77;;;;;;;;;;5005743;28;20042;-65
2021/03/10 10:29:21;;;;;;;46.33;25.38;;;;;;;;;;5006498;28;20540;-65
2021/03/10 10:31:47;;;;;;;50.22;26.08;;;;;;;;;;5002131;28;20497;-64
2021/03/10 10:34:16;;;;;;;48.53;24.10;;;;;;;;;;4998585;28;20107;-65
2021/03/10 10:36:42;;;;;;;44.45;23.90;;;;;;;;;;5002234;28;20056;-66
2021/03/10 10:39:08;;;;;;;48.38;25.25;;;;;;;;;;5006323;28;20497;-65
2021/03/10 10:41:34;;;;;;;47.28;24.63;;;;;;;;;;5009344;28;20033;-65
2021/03/10 10:44:00;;;;;;;38.80;22.77;;;;;;;;;;5004884;28;20030;-65
2021/03/10 10:46:26;;;;;;;45.28;24.42;;;;;;;;;;5012834;28;20046;-65
2021/03/10 10:48:52;;;;;;;41.97;23.67;;;;;;;;;;5011983;28;20033;-64
2021/03/10 10:51:21;;;;;;;44.17;24.08;;;;;;;;;;5009192;28;20044;-65
2021/03/10 10:53:48;;;;;;;41.95;23.48;;;;;;;;;;5009958;28;20135;-65
2021/03/10 10:56:16;;;;;;;37.45;22.88;;;;;;;;;;5006833;28;20033;-65
2021/03/10 10:58:42;;;;;;;41.50;23.33;;;;;;;;;;5014203;28;20041;-65
2021/03/10 11:01:08;;;;;;;42.10;23.88;;;;;;;;;;5001702;28;20044;-65
2021/03/10 11:03:34;;;;;;;39.28;22.45;;;;;;;;;;5008385;28;20049;-65
2021/03/10 11:06:01;;;;;;;44.33;23.38;;;;;;;;;;5009555;28;20053;-65
2021/03/10 11:08:27;;;;;;;43.22;22.65;;;;;;;;;;5010473;28;20034;-64
2021/03/10 11:10:55;;;;;;;43.58;23.33;;;;;;;;;;5007293;28;20229;-64
2021/03/10 11:13:21;;;;;;;42.00;23.60;;;;;;;;;;5003700;28;20041;-65
2021/03/10 11:15:47;;;;;;;46.92;23.52;;;;;;;;;;5005628;28;20358;-64
2021/03/10 11:18:16;;;;;;;43.20;24.00;;;;;;;;;;4998934;28;20034;-65
2021/03/10 11:20:42;;;;;;;42.65;23.05;;;;;;;;;;5002652;28;20103;-64
2021/03/10 11:23:08;;;;;;;46.35;24.42;;;;;;;;;;4999677;28;20049;-65
2021/03/10 11:25:33;;;;;;;41.15;24.05;;;;;;;;;;5010429;28;20038;-65
2021/03/10 11:27:59;;;;;;;45.13;24.65;;;;;;;;;;5007591;28;20583;-65
2021/03/10 11:30:26;;;;;;;41.97;24.02;;;;;;;;;;5005173;28;20095;-65
2021/03/10 11:32:51;;;;;;;43.95;24.25;;;;;;;;;;5010756;28;20445;-65
2021/03/10 11:35:18;;;;;;;43.25;24.95;;;;;;;;;;5011856;28;20041;-65
2021/03/10 11:37:46;;;;;;;43.47;23.23;;;;;;;;;;4997521;28;20446;-65
2021/03/10 11:40:12;;;;;;;44.05;22.83;;;;;;;;;;5008407;28;20098;-65
2021/03/10 11:42:38;;;;;;;38.08;21.40;;;;;;;;;;5003825;28;20063;-65
2021/03/10 11:45:05;;;;;;;39.88;22.35;;;;;;;;;;5003817;28;20754;-65
2021/03/10 11:47:31;;;;;;;38.10;22.35;;;;;;;;;;5006760;28;20493;-65
2021/03/10 11:49:57;;;;;;;38.28;22.00;;;;;;;;;;5001523;28;20080;-65
2021/03/10 11:52:23;;;;;;;38.83;22.42;;;;;;;;;;4996780;28;20075;-65
2021/03/10 11:54:49;;;;;;;40.80;22.00;;;;;;;;;;5005442;28;20041;-65
2021/03/10 11:57:15;;;;;;;40.58;22.02;;;;;;;;;;5000949;28;20033;-64
2021/03/10 11:59:41;;;;;;;41.20;23.23;;;;;;;;;;5005247;28;20502;-65
2021/03/10 12:02:07;;;;;;;40.78;22.90;;;;;;;;;;5001659;28;20064;-65
2021/03/10 12:04:33;;;;;;;39.25;23.08;;;;;;;;;;5004259;28;20033;-64
2021/03/10 12:07:02;;;;;;;41.03;23.38;;;;;;;;;;5005645;28;20139;-65
2021/03/10 12:09:28;;;;;;;39.90;22.88;;;;;;;;;;5008956;28;20397;-65
2021/03/10 12:11:54;;;;;;;44.22;23.83;;;;;;;;;;5007534;28;20621;-65
2021/03/10 12:14:20;;;;;;;40.13;22.10;;;;;;;;;;5007337;28;20041;-65
2021/03/10 12:16:46;;;;;;;42.70;23.15;;;;;;;;;;5007705;28;20065;-65
2021/03/10 12:19:12;;;;;;;42.45;22.98;;;;;;;;;;5006623;28;20065;-65
2021/03/10 12:21:38;;;;;;;48.80;25.23;;;;;;;;;;5007282;28;20483;-65
2021/03/10 12:24:04;;;;;;;43.55;23.73;;;;;;;;;;5006280;28;20037;-65
2021/03/10 12:26:30;;;;;;;47.38;25.52;;;;;;;;;;5008316;28;20040;-65
2021/03/10 12:28:56;;;;;;;49.50;24.13;;;;;;;;;;5005015;28;20097;-65
2021/03/10 12:31:22;;;;;;;49.08;25.40;;;;;;;;;;4998266;28;20037;-64
2021/03/10 12:33:48;;;;;;;48.58;26.52;;;;;;;;;;5011518;28;20057;-65
2021/03/10 12:36:16;;;;;;;49.53;25.75;;;;;;;;;;4995572;28;20033;-65
2021/03/10 12:38:42;;;;;;;48.67;25.52;;;;;;;;;;4999688;28;20037;-65
2021/03/10 12:41:08;;;;;;;51.53;27.02;;;;;;;;;;5003052;28;20066;-65
2021/03/10 12:43:34;;;;;;;45.42;25.52;;;;;;;;;;5011685;28;20156;-65
2021/03/10 12:46:02;;;;;;;50.40;26.48;;;;;;;;;;5004039;28;20115;-65
2021/03/10 12:48:28;;;;;;;49.03;25.73;;;;;;;;;;4995484;28;20060;-65
2021/03/10 12:50:54;;;;;;;52.42;26.77;;;;;;;;;;5009787;28;20045;-64
2021/03/10 12:53:22;;;;;;;49.30;26.60;;;;;;;;;;5009186;28;20040;-65
2021/03/10 12:55:48;;;;;;;50.92;27.45;;;;;;;;;;5011705;28;20090;-64
2021/03/10 12:58:14;;;;;;;52.30;27.27;;;;;;;;;;5003980;28;20037;-64
2021/03/10 13:00:40;;;;;;;49.95;26.67;;;;;;;;;;5003442;28;20405;-64
2021/03/10 13:03:06;;;;;;;54.22;27.33;;;;;;;;;;5005507;28;20042;-65
2021/03/10 13:05:32;;;;;;;54.58;28.65;;;;;;;;;;5004447;28;20046;-64
2021/03/10 13:07:58;;;;;;;54.63;29.63;;;;;;;;;;5006799;28;20041;-64
2021/03/10 13:10:24;;;;;;;55.67;29.15;;;;;;;;;;5005923;28;20034;-64
2021/03/10 13:12:50;;;;;;;60.78;29.48;;;;;;;;;;5004991;28;20041;-64
2021/03/10 13:15:16;;;;;;;53.22;27.95;;;;;;;;;;5006712;28;20405;-65
2021/03/10 13:17:42;;;;;;;59.78;29.15;;;;;;;;;;5005719;28;20041;-64
2021/03/10 13:20:10;;;;;;;56.42;28.98;;;;;;;;;;5008406;28;20053;-64
2021/03/10 13:22:38;;;;;;;62.72;30.75;;;;;;;;;;5003992;28;20523;-64
2021/03/10 13:25:06;;;;;;;56.42;30.13;;;;;;;;;;5002680;28;20040;-64
2021/03/10 13:27:33;;;;;;;61.10;30.95;;;;;;;;;;5010157;28;20091;-64
2021/03/10 13:30:01;;;;;;;60.05;31.25;;;;;;;;;;5002379;28;20052;-64
2021/03/10 13:32:29;;;;;;;58.53;30.88;;;;;;;;;;5003906;28;20115;-65
2021/03/10 13:34:55;;;;;;;59.67;31.13;;;;;;;;;;5000265;28;20037;-64
2021/03/10 13:37:21;;;;;;;60.35;31.58;;;;;;;;;;5009630;28;20087;-65
2021/03/10 13:39:47;;;;;;;61.22;30.80;;;;;;;;;;5008138;28;20054;-65
2021/03/10 13:42:13;;;;;;;59.50;31.00;;;;;;;;;;5003757;28;20041;-65
2021/03/10 13:44:39;;;;;;;66.07;32.17;;;;;;;;;;5003025;28;20400;-65
2021/03/10 13:47:05;;;;;;;62.38;30.83;;;;;;;;;;5014895;28;20034;-65
2021/03/10 13:49:31;;;;;;;60.65;31.63;;;;;;;;;;5004902;28;20076;-65
2021/03/10 13:51:57;;;;;;;63.30;33.50;;;;;;;;;;5006045;28;20041;-65
2021/03/10 13:54:23;;;;;;;58.78;30.92;;;;;;;;;;5012493;28;20129;-65
2021/03/10 13:56:49;;;;;;;69.95;34.55;;;;;;;;;;5010408;28;20432;-64
2021/03/10 13:59:15;;;;;;;67.35;35.83;;;;;;;;;;5006014;28;20041;-65
2021/03/10 14:01:41;;;;;;;69.63;34.58;;;;;;;;;;4995926;28;20404;-64
2021/03/10 14:04:07;;;;;;;63.97;33.67;;;;;;;;;;5002679;28;20136;-64
2021/03/10 14:06:33;;;;;;;71.85;36.03;;;;;;;;;;4998420;28;20041;-64
2021/03/10 14:08:59;;;;;;;66.88;35.05;;;;;;;;;;4994463;28;20124;-64